aviador You're here:

RJOO Decoded Metar

OSAKA in JAPAN
Report Time2016-07-28 00:00:00
UTC Time2016-07-28 00:53:10
Flight Rules vfr VFR
WindVRB at 01 kt
Visibility9999 m
Phenomena:N/A
Clouds:Few 015 Hf
Scattered 025 Hf
Expected CloudBase > 3,200 ft AGL from Temp-Dew spread
CeilingNone
Temp29°C (ISA +14)
Dew Point21°C (62% RH)
Heat Index31.3°C
QNH1011 hPa
Density Alt2,064 ft
Elevation49 ft
Report Wrong Elevation
Raw Report
METAR RJOO 280000Z VRB01KT 9999 FEW015 SCT025 29/21 Q1011 RMK 1CU015
3CU025 A2985=

Extra information for RJOO:More info

Metar Taf Metar & Taf Last 4 Metars F.Rules Stats Wind Profile Meteogram Temp Stats Airport Information Weather charts Add Link Nearby VenuesMetar ALERT Operation Metar Decoded Social comments